KECS/ECS METAR and TAF weather

Enter ICAO airport designator
Station Type Date Time Source
KECS METAR 2021/07/30 22:35 UTC NOAA

KECS 302235Z AUTO 32006KT 5SM HZ CLR 26/14 A3020 RMK AO2


Station Type Date Time Source
KECS Decoded METAR 2021/07/30 22:35 UTC NOAA

Station name not available
Jul 30, 2021 - 06:35 PM EDT / 2021.07.30 2235 UTC
Wind: from the NW (320 degrees) at 7 MPH (6 KT):0
Visibility: 5 mile(s):0
Sky conditions: clear
Weather: haze
Temperature: 78 F (26 C)
Dew Point: 57 F (14 C)
Relative Humidity: 47%
Pressure (altimeter): 30.2 in. Hg (1022 hPa)
ob: KECS 302235Z AUTO 32006KT 5SM HZ CLR 26/14 A3020 RMK AO2
cycle: 22

Station Type Date Time Source
KECS TAF UTC NOAA

Error!

Example: see airport list